Overview Statistics Trail Chart Weather Telemetry Raw packets
 

This is the latest recevied weather packets stored in our database for station/object EA1HEH-13. If no packets are shown the sender has not sent any weather packets the latest 10 day(s).

<< 9 10 11 12 13 14 15 >>
Time Temp. Humidity Pressure Rain* Wind** Luminosity Snow
1788468888 27.78° C 24% 943.3 hPa - - - -
1788468288 27.78° C 25% 943.2 hPa - - - -
1788467688 28.33° C 25% 943.1 hPa - - - -
1788467088 28.33° C 27% 943 hPa - - - -
1788466488 28.33° C 28% 943 hPa - - - -
1788465888 28.33° C 29% 942.8 hPa - - - -
1788465288 28.33° C 31% 942.6 hPa - - - -
1788464688 28.33° C 33% 942.5 hPa - - - -
1788464088 28.33° C 34% 942.4 hPa - - - -
1788463488 28.33° C 35% 942.3 hPa - - - -
1788462888 28.89° C 36% 942.3 hPa - - - -
1788462288 28.89° C 36% 942.2 hPa - - - -
1788461688 29.44° C 36% 942.2 hPa - - - -
1788461088 29.44° C 35% 942.2 hPa - - - -
1788460488 29.44° C 35% 942.1 hPa - - - -
1788459887 30° C 34% 942.2 hPa - - - -
1788459288 30° C 32% 942.2 hPa - - - -
1788458688 32.78° C 11% 942.6 hPa - - - -
1788458088 32.78° C 11% 942.6 hPa - - - -
1788457488 33.33° C 11% 942.6 hPa - - - -
1788456887 33.33° C 11% 942.6 hPa - - - -
1788456288 33.33° C 10% 942.6 hPa - - - -
1788455687 33.33° C 10% 942.7 hPa - - - -
1788455087 33.33° C 10% 942.7 hPa - - - -
1788454487 32.78° C 10% 942.6 hPa - - - -

* Rain since midnight (hover to see other rain measurements)
** Current wind speed in m/s (hover to see current wind gust speed)